sensor_id;sensor_type;location;lat;lon;timestamp;P1;durP1;ratioP1;P2;durP2;ratioP2
48014;SDS011;33780;51.034;7.120;2023-06-22T00:01:13;3.17;;;1.98;;
48014;SDS011;33780;51.034;7.120;2023-06-22T00:03:39;3.30;;;2.03;;
48014;SDS011;33780;51.034;7.120;2023-06-22T00:06:04;5.57;;;2.15;;
48014;SDS011;33780;51.034;7.120;2023-06-22T00:08:29;3.55;;;2.17;;
48014;SDS011;33780;51.034;7.120;2023-06-22T00:10:57;3.42;;;1.85;;
48014;SDS011;33780;51.034;7.120;2023-06-22T00:13:30;4.30;;;2.33;;
48014;SDS011;33780;51.034;7.120;2023-06-22T00:15:56;3.50;;;1.90;;
48014;SDS011;33780;51.034;7.120;2023-06-22T00:18:23;4.65;;;2.40;;
48014;SDS011;33780;51.034;7.120;2023-06-22T00:20:53;3.95;;;2.45;;
48014;SDS011;33780;51.034;7.120;2023-06-22T00:23:22;7.45;;;2.10;;
48014;SDS011;33780;51.034;7.120;2023-06-22T00:25:48;4.72;;;2.40;;
48014;SDS011;33780;51.034;7.120;2023-06-22T00:28:14;4.32;;;2.00;;
48014;SDS011;33780;51.034;7.120;2023-06-22T00:30:39;4.38;;;2.20;;
48014;SDS011;33780;51.034;7.120;2023-06-22T00:33:04;3.80;;;2.17;;
48014;SDS011;33780;51.034;7.120;2023-06-22T00:35:32;3.88;;;2.20;;
48014;SDS011;33780;51.034;7.120;2023-06-22T00:37:58;4.13;;;2.22;;
48014;SDS011;33780;51.034;7.120;2023-06-22T00:40:29;5.35;;;2.28;;
48014;SDS011;33780;51.034;7.120;2023-06-22T00:42:55;3.45;;;2.17;;
48014;SDS011;33780;51.034;7.120;2023-06-22T00:45:21;3.90;;;2.10;;
48014;SDS011;33780;51.034;7.120;2023-06-22T00:47:48;4.13;;;2.25;;
48014;SDS011;33780;51.034;7.120;2023-06-22T00:50:17;4.50;;;2.40;;
48014;SDS011;33780;51.034;7.120;2023-06-22T00:52:46;3.55;;;2.40;;
48014;SDS011;33780;51.034;7.120;2023-06-22T00:55:13;3.67;;;2.25;;
48014;SDS011;33780;51.034;7.120;2023-06-22T00:57:39;3.20;;;1.77;;
48014;SDS011;33780;51.034;7.120;2023-06-22T01:00:05;4.28;;;2.30;;
48014;SDS011;33780;51.034;7.120;2023-06-22T01:02:36;4.00;;;2.53;;
48014;SDS011;33780;51.034;7.120;2023-06-22T01:05:03;4.03;;;2.30;;
48014;SDS011;33780;51.034;7.120;2023-06-22T01:07:42;6.00;;;2.10;;
48014;SDS011;33780;51.034;7.120;2023-06-22T01:10:14;4.53;;;2.33;;
48014;SDS011;33780;51.034;7.120;2023-06-22T01:12:49;3.50;;;2.08;;
48014;SDS011;33780;51.034;7.120;2023-06-22T01:15:21;4.32;;;2.28;;
48014;SDS011;33780;51.034;7.120;2023-06-22T01:17:56;3.53;;;2.30;;
48014;SDS011;33780;51.034;7.120;2023-06-22T01:20:22;5.68;;;2.30;;
48014;SDS011;33780;51.034;7.120;2023-06-22T01:25:36;3.88;;;2.15;;
48014;SDS011;33780;51.034;7.120;2023-06-22T01:28:23;3.13;;;2.15;;
48014;SDS011;33780;51.034;7.120;2023-06-22T01:30:59;3.38;;;2.08;;
48014;SDS011;33780;51.034;7.120;2023-06-22T01:33:34;3.35;;;1.98;;
48014;SDS011;33780;51.034;7.120;2023-06-22T01:36:02;4.38;;;2.53;;
48014;SDS011;33780;51.034;7.120;2023-06-22T01:38:29;3.60;;;2.28;;
48014;SDS011;33780;51.034;7.120;2023-06-22T01:40:56;3.53;;;2.15;;
48014;SDS011;33780;51.034;7.120;2023-06-22T01:43:22;3.50;;;2.20;;
48014;SDS011;33780;51.034;7.120;2023-06-22T01:45:49;3.33;;;2.03;;
48014;SDS011;33780;51.034;7.120;2023-06-22T01:48:15;3.13;;;2.10;;
48014;SDS011;33780;51.034;7.120;2023-06-22T01:50:42;6.97;;;2.20;;
48014;SDS011;33780;51.034;7.120;2023-06-22T01:53:08;3.38;;;2.10;;
48014;SDS011;33780;51.034;7.120;2023-06-22T01:55:33;3.90;;;2.30;;
48014;SDS011;33780;51.034;7.120;2023-06-22T01:57:58;3.55;;;2.20;;
48014;SDS011;33780;51.034;7.120;2023-06-22T02:00:24;3.58;;;2.22;;
48014;SDS011;33780;51.034;7.120;2023-06-22T02:02:59;3.63;;;2.00;;
48014;SDS011;33780;51.034;7.120;2023-06-22T02:05:31;3.65;;;1.95;;
48014;SDS011;33780;51.034;7.120;2023-06-22T02:08:09;4.45;;;2.30;;
48014;SDS011;33780;51.034;7.120;2023-06-22T02:10:37;4.50;;;2.38;;
48014;SDS011;33780;51.034;7.120;2023-06-22T02:13:06;3.38;;;2.20;;
48014;SDS011;33780;51.034;7.120;2023-06-22T02:15:33;3.25;;;2.00;;
48014;SDS011;33780;51.034;7.120;2023-06-22T02:18:01;3.38;;;2.20;;
48014;SDS011;33780;51.034;7.120;2023-06-22T02:20:27;3.50;;;2.00;;
48014;SDS011;33780;51.034;7.120;2023-06-22T02:22:55;3.28;;;2.00;;
48014;SDS011;33780;51.034;7.120;2023-06-22T02:25:20;4.85;;;2.17;;
48014;SDS011;33780;51.034;7.120;2023-06-22T02:27:46;3.20;;;2.00;;
48014;SDS011;33780;51.034;7.120;2023-06-22T02:30:12;3.92;;;2.00;;
48014;SDS011;33780;51.034;7.120;2023-06-22T02:32:37;2.92;;;1.92;;
48014;SDS011;33780;51.034;7.120;2023-06-22T02:35:07;3.97;;;1.98;;
48014;SDS011;33780;51.034;7.120;2023-06-22T02:37:35;4.90;;;1.90;;
48014;SDS011;33780;51.034;7.120;2023-06-22T02:40:01;3.28;;;2.00;;
48014;SDS011;33780;51.034;7.120;2023-06-22T02:42:28;3.17;;;1.92;;
48014;SDS011;33780;51.034;7.120;2023-06-22T02:44:53;3.20;;;2.00;;
48014;SDS011;33780;51.034;7.120;2023-06-22T02:47:18;3.30;;;1.73;;
48014;SDS011;33780;51.034;7.120;2023-06-22T02:49:44;3.85;;;1.88;;
48014;SDS011;33780;51.034;7.120;2023-06-22T02:52:10;3.10;;;1.90;;
48014;SDS011;33780;51.034;7.120;2023-06-22T02:54:36;3.17;;;1.80;;
48014;SDS011;33780;51.034;7.120;2023-06-22T02:57:04;2.88;;;1.85;;
48014;SDS011;33780;51.034;7.120;2023-06-22T02:59:30;4.25;;;2.10;;
48014;SDS011;33780;51.034;7.120;2023-06-22T03:01:55;3.67;;;1.90;;
48014;SDS011;33780;51.034;7.120;2023-06-22T03:04:21;2.85;;;1.75;;
48014;SDS011;33780;51.034;7.120;2023-06-22T03:06:46;3.25;;;1.95;;
48014;SDS011;33780;51.034;7.120;2023-06-22T03:09:15;3.47;;;2.00;;
48014;SDS011;33780;51.034;7.120;2023-06-22T03:11:41;2.70;;;1.70;;
48014;SDS011;33780;51.034;7.120;2023-06-22T03:14:06;3.22;;;1.85;;
48014;SDS011;33780;51.034;7.120;2023-06-22T03:16:32;3.25;;;1.80;;
48014;SDS011;33780;51.034;7.120;2023-06-22T03:18:58;3.20;;;1.80;;
48014;SDS011;33780;51.034;7.120;2023-06-22T03:21:23;2.92;;;1.90;;
48014;SDS011;33780;51.034;7.120;2023-06-22T03:23:50;3.03;;;1.70;;
48014;SDS011;33780;51.034;7.120;2023-06-22T03:26:18;3.10;;;1.92;;
48014;SDS011;33780;51.034;7.120;2023-06-22T03:28:44;2.95;;;1.70;;
48014;SDS011;33780;51.034;7.120;2023-06-22T03:31:12;2.97;;;1.90;;
48014;SDS011;33780;51.034;7.120;2023-06-22T03:33:37;3.60;;;1.85;;
48014;SDS011;33780;51.034;7.120;2023-06-22T03:36:05;3.92;;;1.98;;
48014;SDS011;33780;51.034;7.120;2023-06-22T03:38:34;3.58;;;1.85;;
48014;SDS011;33780;51.034;7.120;2023-06-22T03:40:59;4.55;;;1.83;;
48014;SDS011;33780;51.034;7.120;2023-06-22T03:43:27;3.72;;;1.90;;
48014;SDS011;33780;51.034;7.120;2023-06-22T03:45:53;2.80;;;1.80;;
48014;SDS011;33780;51.034;7.120;2023-06-22T03:48:18;3.10;;;1.80;;
48014;SDS011;33780;51.034;7.120;2023-06-22T03:50:43;3.45;;;1.90;;
48014;SDS011;33780;51.034;7.120;2023-06-22T03:53:09;6.22;;;2.15;;
48014;SDS011;33780;51.034;7.120;2023-06-22T03:55:35;3.20;;;1.80;;
48014;SDS011;33780;51.034;7.120;2023-06-22T03:58:01;4.95;;;1.90;;
48014;SDS011;33780;51.034;7.120;2023-06-22T04:00:30;2.78;;;2.00;;
48014;SDS011;33780;51.034;7.120;2023-06-22T04:02:55;3.67;;;2.08;;
48014;SDS011;33780;51.034;7.120;2023-06-22T04:05:21;3.20;;;1.70;;
48014;SDS011;33780;51.034;7.120;2023-06-22T04:07:46;3.08;;;1.83;;
48014;SDS011;33780;51.034;7.120;2023-06-22T04:10:11;4.18;;;1.85;;
48014;SDS011;33780;51.034;7.120;2023-06-22T04:12:36;2.90;;;1.85;;
48014;SDS011;33780;51.034;7.120;2023-06-22T04:15:02;3.35;;;2.05;;
48014;SDS011;33780;51.034;7.120;2023-06-22T04:17:27;2.63;;;1.63;;
48014;SDS011;33780;51.034;7.120;2023-06-22T04:19:53;5.32;;;1.95;;
48014;SDS011;33780;51.034;7.120;2023-06-22T04:22:18;3.58;;;2.20;;
48014;SDS011;33780;51.034;7.120;2023-06-22T04:24:43;5.45;;;1.90;;
48014;SDS011;33780;51.034;7.120;2023-06-22T04:27:09;2.50;;;1.70;;
48014;SDS011;33780;51.034;7.120;2023-06-22T04:29:34;3.30;;;1.90;;
48014;SDS011;33780;51.034;7.120;2023-06-22T04:32:00;3.85;;;1.63;;
48014;SDS011;33780;51.034;7.120;2023-06-22T04:34:30;3.03;;;1.70;;
48014;SDS011;33780;51.034;7.120;2023-06-22T04:36:55;4.85;;;2.28;;
48014;SDS011;33780;51.034;7.120;2023-06-22T04:39:20;2.95;;;1.85;;
48014;SDS011;33780;51.034;7.120;2023-06-22T04:41:46;3.67;;;1.75;;
48014;SDS011;33780;51.034;7.120;2023-06-22T04:44:17;3.72;;;1.80;;
48014;SDS011;33780;51.034;7.120;2023-06-22T04:46:50;4.72;;;2.20;;
48014;SDS011;33780;51.034;7.120;2023-06-22T04:49:19;2.97;;;1.90;;
48014;SDS011;33780;51.034;7.120;2023-06-22T04:51:45;3.35;;;2.00;;
48014;SDS011;33780;51.034;7.120;2023-06-22T04:54:10;3.83;;;2.22;;
48014;SDS011;33780;51.034;7.120;2023-06-22T04:56:38;4.15;;;1.85;;
48014;SDS011;33780;51.034;7.120;2023-06-22T04:59:42;3.55;;;2.05;;
48014;SDS011;33780;51.034;7.120;2023-06-22T05:02:09;3.17;;;1.90;;
48014;SDS011;33780;51.034;7.120;2023-06-22T05:04:35;3.20;;;1.80;;
48014;SDS011;33780;51.034;7.120;2023-06-22T05:07:05;3.75;;;2.03;;
48014;SDS011;33780;51.034;7.120;2023-06-22T05:09:36;3.25;;;1.98;;
48014;SDS011;33780;51.034;7.120;2023-06-22T05:12:02;3.58;;;2.20;;
48014;SDS011;33780;51.034;7.120;2023-06-22T05:14:28;4.13;;;2.30;;
48014;SDS011;33780;51.034;7.120;2023-06-22T05:16:54;4.00;;;2.20;;
48014;SDS011;33780;51.034;7.120;2023-06-22T05:19:23;3.58;;;2.30;;
48014;SDS011;33780;51.034;7.120;2023-06-22T05:21:49;4.72;;;2.55;;
48014;SDS011;33780;51.034;7.120;2023-06-22T05:24:24;5.85;;;2.70;;
48014;SDS011;33780;51.034;7.120;2023-06-22T05:26:53;6.20;;;2.38;;
48014;SDS011;33780;51.034;7.120;2023-06-22T05:29:26;3.25;;;2.13;;
48014;SDS011;33780;51.034;7.120;2023-06-22T05:34:31;4.72;;;2.08;;
48014;SDS011;33780;51.034;7.120;2023-06-22T05:36:59;4.68;;;2.47;;
48014;SDS011;33780;51.034;7.120;2023-06-22T05:39:28;3.72;;;2.22;;
48014;SDS011;33780;51.034;7.120;2023-06-22T05:42:00;4.75;;;2.47;;
48014;SDS011;33780;51.034;7.120;2023-06-22T05:44:38;5.55;;;2.70;;
48014;SDS011;33780;51.034;7.120;2023-06-22T05:47:15;3.47;;;2.25;;
48014;SDS011;33780;51.034;7.120;2023-06-22T05:49:50;4.18;;;2.58;;
48014;SDS011;33780;51.034;7.120;2023-06-22T05:52:23;4.00;;;2.72;;
48014;SDS011;33780;51.034;7.120;2023-06-22T05:54:53;4.72;;;2.58;;
48014;SDS011;33780;51.034;7.120;2023-06-22T05:57:35;5.03;;;2.60;;
48014;SDS011;33780;51.034;7.120;2023-06-22T06:00:16;4.15;;;2.85;;
48014;SDS011;33780;51.034;7.120;2023-06-22T06:06:27;4.95;;;2.65;;
48014;SDS011;33780;51.034;7.120;2023-06-22T06:09:19;5.00;;;2.47;;
48014;SDS011;33780;51.034;7.120;2023-06-22T06:19:14;6.63;;;3.38;;
48014;SDS011;33780;51.034;7.120;2023-06-22T06:22:13;6.97;;;3.28;;
48014;SDS011;33780;51.034;7.120;2023-06-22T06:25:06;6.72;;;2.72;;
48014;SDS011;33780;51.034;7.120;2023-06-22T06:27:46;4.75;;;2.83;;
48014;SDS011;33780;51.034;7.120;2023-06-22T06:30:20;5.43;;;3.08;;
48014;SDS011;33780;51.034;7.120;2023-06-22T06:35:42;5.60;;;3.38;;
48014;SDS011;33780;51.034;7.120;2023-06-22T06:39:00;5.70;;;3.88;;
48014;SDS011;33780;51.034;7.120;2023-06-22T06:41:28;7.13;;;3.65;;
48014;SDS011;33780;51.034;7.120;2023-06-22T06:44:22;5.65;;;3.63;;
48014;SDS011;33780;51.034;7.120;2023-06-22T06:46:55;5.15;;;3.25;;
48014;SDS011;33780;51.034;7.120;2023-06-22T06:49:24;5.55;;;3.78;;
48014;SDS011;33780;51.034;7.120;2023-06-22T06:52:04;5.22;;;3.55;;
48014;SDS011;33780;51.034;7.120;2023-06-22T06:54:45;5.47;;;3.35;;
48014;SDS011;33780;51.034;7.120;2023-06-22T06:57:13;7.03;;;3.40;;
48014;SDS011;33780;51.034;7.120;2023-06-22T07:02:27;6.70;;;3.85;;
48014;SDS011;33780;51.034;7.120;2023-06-22T07:05:02;6.00;;;3.65;;
48014;SDS011;33780;51.034;7.120;2023-06-22T07:07:36;5.75;;;3.50;;
48014;SDS011;33780;51.034;7.120;2023-06-22T07:10:14;5.53;;;3.17;;
48014;SDS011;33780;51.034;7.120;2023-06-22T07:12:40;6.47;;;3.30;;
48014;SDS011;33780;51.034;7.120;2023-06-22T07:15:06;5.60;;;3.45;;
48014;SDS011;33780;51.034;7.120;2023-06-22T07:17:37;6.53;;;3.73;;
48014;SDS011;33780;51.034;7.120;2023-06-22T07:20:05;4.63;;;3.22;;
48014;SDS011;33780;51.034;7.120;2023-06-22T07:22:41;5.20;;;3.60;;
48014;SDS011;33780;51.034;7.120;2023-06-22T07:25:18;6.00;;;3.75;;
48014;SDS011;33780;51.034;7.120;2023-06-22T07:27:57;5.68;;;3.88;;
48014;SDS011;33780;51.034;7.120;2023-06-22T07:30:27;6.20;;;3.83;;
48014;SDS011;33780;51.034;7.120;2023-06-22T07:33:07;6.18;;;3.90;;
48014;SDS011;33780;51.034;7.120;2023-06-22T07:35:44;6.63;;;4.03;;
48014;SDS011;33780;51.034;7.120;2023-06-22T07:38:12;5.60;;;3.85;;
48014;SDS011;33780;51.034;7.120;2023-06-22T07:40:50;5.68;;;4.00;;
48014;SDS011;33780;51.034;7.120;2023-06-22T07:43:43;6.82;;;4.30;;
48014;SDS011;33780;51.034;7.120;2023-06-22T07:46:15;7.15;;;4.70;;
48014;SDS011;33780;51.034;7.120;2023-06-22T07:48:40;6.88;;;4.32;;
48014;SDS011;33780;51.034;7.120;2023-06-22T07:51:06;7.38;;;3.90;;
48014;SDS011;33780;51.034;7.120;2023-06-22T07:53:32;5.43;;;3.63;;
48014;SDS011;33780;51.034;7.120;2023-06-22T07:56:17;6.50;;;3.75;;
48014;SDS011;33780;51.034;7.120;2023-06-22T07:58:45;5.88;;;3.47;;
48014;SDS011;33780;51.034;7.120;2023-06-22T08:01:26;6.35;;;3.63;;
48014;SDS011;33780;51.034;7.120;2023-06-22T08:04:01;6.50;;;4.18;;
48014;SDS011;33780;51.034;7.120;2023-06-22T08:06:43;8.95;;;4.32;;
48014;SDS011;33780;51.034;7.120;2023-06-22T08:09:14;7.53;;;4.10;;
48014;SDS011;33780;51.034;7.120;2023-06-22T08:11:43;6.45;;;3.90;;
48014;SDS011;33780;51.034;7.120;2023-06-22T08:14:08;6.93;;;3.95;;
48014;SDS011;33780;51.034;7.120;2023-06-22T08:16:34;6.90;;;3.88;;
48014;SDS011;33780;51.034;7.120;2023-06-22T08:18:59;6.18;;;4.03;;
48014;SDS011;33780;51.034;7.120;2023-06-22T08:21:24;6.53;;;3.90;;
48014;SDS011;33780;51.034;7.120;2023-06-22T08:23:49;6.00;;;3.70;;
48014;SDS011;33780;51.034;7.120;2023-06-22T08:26:18;6.75;;;3.83;;
48014;SDS011;33780;51.034;7.120;2023-06-22T08:28:43;6.20;;;3.80;;
48014;SDS011;33780;51.034;7.120;2023-06-22T08:31:08;7.03;;;3.90;;
48014;SDS011;33780;51.034;7.120;2023-06-22T08:34:09;6.72;;;3.85;;
48014;SDS011;33780;51.034;7.120;2023-06-22T08:36:35;4.75;;;3.35;;
48014;SDS011;33780;51.034;7.120;2023-06-22T08:39:02;5.47;;;3.28;;
48014;SDS011;33780;51.034;7.120;2023-06-22T08:41:28;6.43;;;3.90;;
48014;SDS011;33780;51.034;7.120;2023-06-22T08:43:54;6.15;;;3.53;;
48014;SDS011;33780;51.034;7.120;2023-06-22T08:46:20;7.95;;;3.90;;
48014;SDS011;33780;51.034;7.120;2023-06-22T08:48:51;5.38;;;3.30;;
48014;SDS011;33780;51.034;7.120;2023-06-22T08:51:16;5.80;;;3.33;;
48014;SDS011;33780;51.034;7.120;2023-06-22T08:53:45;5.18;;;3.10;;
48014;SDS011;33780;51.034;7.120;2023-06-22T08:56:10;6.38;;;3.00;;
48014;SDS011;33780;51.034;7.120;2023-06-22T08:58:43;5.28;;;3.08;;
48014;SDS011;33780;51.034;7.120;2023-06-22T09:01:09;5.88;;;3.45;;
48014;SDS011;33780;51.034;7.120;2023-06-22T09:03:34;5.68;;;3.40;;
48014;SDS011;33780;51.034;7.120;2023-06-22T09:06:01;6.47;;;3.20;;
48014;SDS011;33780;51.034;7.120;2023-06-22T09:08:26;7.13;;;3.38;;
48014;SDS011;33780;51.034;7.120;2023-06-22T09:10:52;4.47;;;3.15;;
48014;SDS011;33780;51.034;7.120;2023-06-22T09:13:17;5.75;;;3.38;;
48014;SDS011;33780;51.034;7.120;2023-06-22T09:15:43;5.20;;;3.42;;
48014;SDS011;33780;51.034;7.120;2023-06-22T09:18:10;6.25;;;3.28;;
48014;SDS011;33780;51.034;7.120;2023-06-22T09:20:36;6.57;;;3.35;;
48014;SDS011;33780;51.034;7.120;2023-06-22T09:23:01;5.70;;;3.40;;
48014;SDS011;33780;51.034;7.120;2023-06-22T09:25:32;6.05;;;3.33;;
48014;SDS011;33780;51.034;7.120;2023-06-22T09:27:57;5.50;;;3.10;;
48014;SDS011;33780;51.034;7.120;2023-06-22T09:30:23;6.63;;;3.08;;
48014;SDS011;33780;51.034;7.120;2023-06-22T09:32:48;5.47;;;3.20;;
48014;SDS011;33780;51.034;7.120;2023-06-22T09:35:17;4.97;;;3.20;;
48014;SDS011;33780;51.034;7.120;2023-06-22T09:37:45;4.32;;;2.58;;
48014;SDS011;33780;51.034;7.120;2023-06-22T09:40:11;4.97;;;2.85;;
48014;SDS011;33780;51.034;7.120;2023-06-22T09:42:38;5.75;;;3.30;;
48014;SDS011;33780;51.034;7.120;2023-06-22T09:45:04;8.18;;;3.15;;
48014;SDS011;33780;51.034;7.120;2023-06-22T09:47:30;5.70;;;2.80;;
48014;SDS011;33780;51.034;7.120;2023-06-22T09:49:55;5.32;;;3.10;;
48014;SDS011;33780;51.034;7.120;2023-06-22T09:52:28;4.30;;;2.78;;
48014;SDS011;33780;51.034;7.120;2023-06-22T09:55:00;4.53;;;2.65;;
48014;SDS011;33780;51.034;7.120;2023-06-22T09:57:32;4.88;;;3.00;;
48014;SDS011;33780;51.034;7.120;2023-06-22T10:00:00;5.00;;;3.03;;
48014;SDS011;33780;51.034;7.120;2023-06-22T10:02:29;4.32;;;2.72;;
48014;SDS011;33780;51.034;7.120;2023-06-22T10:05:00;6.60;;;3.22;;
48014;SDS011;33780;51.034;7.120;2023-06-22T10:07:44;4.57;;;2.90;;
48014;SDS011;33780;51.034;7.120;2023-06-22T10:10:12;8.88;;;3.17;;
48014;SDS011;33780;51.034;7.120;2023-06-22T10:12:47;5.45;;;3.13;;
48014;SDS011;33780;51.034;7.120;2023-06-22T10:15:23;4.82;;;3.10;;
48014;SDS011;33780;51.034;7.120;2023-06-22T10:18:00;4.90;;;2.88;;
48014;SDS011;33780;51.034;7.120;2023-06-22T10:20:39;5.53;;;3.22;;
48014;SDS011;33780;51.034;7.120;2023-06-22T10:23:05;6.30;;;2.90;;
48014;SDS011;33780;51.034;7.120;2023-06-22T10:25:30;4.97;;;2.90;;
48014;SDS011;33780;51.034;7.120;2023-06-22T10:27:55;4.50;;;2.95;;
48014;SDS011;33780;51.034;7.120;2023-06-22T10:30:27;5.68;;;3.17;;
48014;SDS011;33780;51.034;7.120;2023-06-22T10:35:30;5.90;;;3.20;;
48014;SDS011;33780;51.034;7.120;2023-06-22T10:38:03;5.10;;;3.13;;
48014;SDS011;33780;51.034;7.120;2023-06-22T10:40:46;5.15;;;2.75;;
48014;SDS011;33780;51.034;7.120;2023-06-22T10:43:14;4.65;;;2.95;;
48014;SDS011;33780;51.034;7.120;2023-06-22T10:45:40;6.57;;;3.13;;
48014;SDS011;33780;51.034;7.120;2023-06-22T10:48:05;11.18;;;3.53;;
48014;SDS011;33780;51.034;7.120;2023-06-22T10:50:30;7.68;;;3.80;;
48014;SDS011;33780;51.034;7.120;2023-06-22T10:52:56;7.75;;;3.40;;
48014;SDS011;33780;51.034;7.120;2023-06-22T10:55:31;7.72;;;3.45;;
48014;SDS011;33780;51.034;7.120;2023-06-22T10:57:59;6.43;;;3.72;;
48014;SDS011;33780;51.034;7.120;2023-06-22T11:00:24;6.03;;;3.58;;
48014;SDS011;33780;51.034;7.120;2023-06-22T11:02:50;7.53;;;4.32;;
48014;SDS011;33780;51.034;7.120;2023-06-22T11:05:20;9.50;;;3.92;;
48014;SDS011;33780;51.034;7.120;2023-06-22T11:07:46;7.45;;;3.78;;
48014;SDS011;33780;51.034;7.120;2023-06-22T11:10:14;6.20;;;4.03;;
48014;SDS011;33780;51.034;7.120;2023-06-22T11:12:40;9.07;;;3.50;;
48014;SDS011;33780;51.034;7.120;2023-06-22T11:15:05;10.27;;;3.97;;
48014;SDS011;33780;51.034;7.120;2023-06-22T11:17:34;9.60;;;4.50;;
48014;SDS011;33780;51.034;7.120;2023-06-22T11:19:59;7.25;;;4.30;;
48014;SDS011;33780;51.034;7.120;2023-06-22T11:22:25;7.57;;;4.22;;
48014;SDS011;33780;51.034;7.120;2023-06-22T11:24:50;7.05;;;4.40;;
48014;SDS011;33780;51.034;7.120;2023-06-22T11:27:15;7.97;;;4.45;;
48014;SDS011;33780;51.034;7.120;2023-06-22T11:29:41;7.72;;;4.30;;
48014;SDS011;33780;51.034;7.120;2023-06-22T11:32:06;8.18;;;4.38;;
48014;SDS011;33780;51.034;7.120;2023-06-22T11:34:32;7.95;;;4.68;;
48014;SDS011;33780;51.034;7.120;2023-06-22T11:36:57;10.13;;;4.65;;
48014;SDS011;33780;51.034;7.120;2023-06-22T11:39:23;8.13;;;4.30;;
48014;SDS011;33780;51.034;7.120;2023-06-22T11:41:48;8.10;;;4.25;;
48014;SDS011;33780;51.034;7.120;2023-06-22T11:44:13;7.82;;;4.68;;
48014;SDS011;33780;51.034;7.120;2023-06-22T11:46:39;9.50;;;5.10;;
48014;SDS011;33780;51.034;7.120;2023-06-22T11:49:04;9.25;;;4.80;;
48014;SDS011;33780;51.034;7.120;2023-06-22T11:51:29;9.07;;;4.63;;
48014;SDS011;33780;51.034;7.120;2023-06-22T11:53:56;8.32;;;4.90;;
48014;SDS011;33780;51.034;7.120;2023-06-22T11:56:21;7.10;;;4.72;;
48014;SDS011;33780;51.034;7.120;2023-06-22T11:58:47;8.75;;;5.15;;
48014;SDS011;33780;51.034;7.120;2023-06-22T12:01:12;8.65;;;4.68;;
48014;SDS011;33780;51.034;7.120;2023-06-22T12:03:39;8.68;;;4.72;;
48014;SDS011;33780;51.034;7.120;2023-06-22T12:06:05;7.50;;;4.95;;
48014;SDS011;33780;51.034;7.120;2023-06-22T12:08:30;7.95;;;4.60;;
48014;SDS011;33780;51.034;7.120;2023-06-22T12:10:55;7.65;;;4.75;;
48014;SDS011;33780;51.034;7.120;2023-06-22T12:13:21;8.48;;;4.65;;
48014;SDS011;33780;51.034;7.120;2023-06-22T12:15:46;8.52;;;5.13;;
48014;SDS011;33780;51.034;7.120;2023-06-22T12:18:12;8.07;;;4.65;;
48014;SDS011;33780;51.034;7.120;2023-06-22T12:20:39;9.23;;;4.45;;
48014;SDS011;33780;51.034;7.120;2023-06-22T12:23:04;7.32;;;4.57;;
48014;SDS011;33780;51.034;7.120;2023-06-22T12:25:30;7.47;;;4.72;;
48014;SDS011;33780;51.034;7.120;2023-06-22T12:27:55;7.40;;;4.30;;
48014;SDS011;33780;51.034;7.120;2023-06-22T12:30:23;8.35;;;4.20;;
48014;SDS011;33780;51.034;7.120;2023-06-22T12:32:48;8.73;;;4.78;;
48014;SDS011;33780;51.034;7.120;2023-06-22T12:35:14;5.97;;;4.32;;
48014;SDS011;33780;51.034;7.120;2023-06-22T12:37:42;8.35;;;4.28;;
48014;SDS011;33780;51.034;7.120;2023-06-22T12:40:08;8.27;;;4.53;;
48014;SDS011;33780;51.034;7.120;2023-06-22T12:42:34;7.32;;;4.60;;
48014;SDS011;33780;51.034;7.120;2023-06-22T12:45:00;8.68;;;5.00;;
48014;SDS011;33780;51.034;7.120;2023-06-22T12:47:25;7.07;;;4.57;;
48014;SDS011;33780;51.034;7.120;2023-06-22T12:49:50;6.63;;;4.10;;
48014;SDS011;33780;51.034;7.120;2023-06-22T12:52:15;6.78;;;4.10;;
48014;SDS011;33780;51.034;7.120;2023-06-22T12:54:41;7.82;;;4.25;;
48014;SDS011;33780;51.034;7.120;2023-06-22T12:57:06;5.93;;;4.07;;
48014;SDS011;33780;51.034;7.120;2023-06-22T12:59:31;8.68;;;4.72;;
48014;SDS011;33780;51.034;7.120;2023-06-22T13:01:57;5.82;;;3.40;;
48014;SDS011;33780;51.034;7.120;2023-06-22T13:04:22;6.72;;;3.67;;
48014;SDS011;33780;51.034;7.120;2023-06-22T13:06:48;6.63;;;3.67;;
48014;SDS011;33780;51.034;7.120;2023-06-22T13:09:13;5.47;;;3.38;;
48014;SDS011;33780;51.034;7.120;2023-06-22T13:11:40;5.57;;;3.20;;
48014;SDS011;33780;51.034;7.120;2023-06-22T13:14:05;5.50;;;2.67;;
48014;SDS011;33780;51.034;7.120;2023-06-22T13:16:31;4.28;;;2.33;;
48014;SDS011;33780;51.034;7.120;2023-06-22T13:18:56;3.83;;;2.28;;
48014;SDS011;33780;51.034;7.120;2023-06-22T13:21:21;4.30;;;2.20;;
48014;SDS011;33780;51.034;7.120;2023-06-22T13:23:46;4.60;;;2.53;;
48014;SDS011;33780;51.034;7.120;2023-06-22T13:26:12;3.47;;;1.88;;
48014;SDS011;33780;51.034;7.120;2023-06-22T13:28:37;3.58;;;2.25;;
48014;SDS011;33780;51.034;7.120;2023-06-22T13:31:02;2.92;;;1.92;;
48014;SDS011;33780;51.034;7.120;2023-06-22T13:33:27;4.28;;;2.10;;
48014;SDS011;33780;51.034;7.120;2023-06-22T13:35:53;3.10;;;2.00;;
48014;SDS011;33780;51.034;7.120;2023-06-22T13:38:18;3.10;;;1.90;;
48014;SDS011;33780;51.034;7.120;2023-06-22T13:40:43;3.33;;;2.20;;
48014;SDS011;33780;51.034;7.120;2023-06-22T13:43:09;2.83;;;1.80;;
48014;SDS011;33780;51.034;7.120;2023-06-22T13:45:34;3.88;;;2.05;;
48014;SDS011;33780;51.034;7.120;2023-06-22T13:48:00;3.28;;;1.60;;
48014;SDS011;33780;51.034;7.120;2023-06-22T13:50:25;2.90;;;1.60;;
48014;SDS011;33780;51.034;7.120;2023-06-22T13:52:50;4.13;;;1.80;;
48014;SDS011;33780;51.034;7.120;2023-06-22T13:55:16;3.50;;;2.28;;
48014;SDS011;33780;51.034;7.120;2023-06-22T13:57:42;4.75;;;2.22;;
48014;SDS011;33780;51.034;7.120;2023-06-22T14:00:08;3.78;;;2.30;;
48014;SDS011;33780;51.034;7.120;2023-06-22T14:02:34;4.80;;;2.13;;
48014;SDS011;33780;51.034;7.120;2023-06-22T14:05:00;4.93;;;2.45;;
48014;SDS011;33780;51.034;7.120;2023-06-22T14:07:25;3.83;;;2.40;;
48014;SDS011;33780;51.034;7.120;2023-06-22T14:09:50;4.25;;;2.58;;
48014;SDS011;33780;51.034;7.120;2023-06-22T14:12:16;4.97;;;2.15;;
48014;SDS011;33780;51.034;7.120;2023-06-22T14:14:43;4.00;;;2.03;;
48014;SDS011;33780;51.034;7.120;2023-06-22T14:17:08;3.70;;;2.38;;
48014;SDS011;33780;51.034;7.120;2023-06-22T14:19:33;3.50;;;2.35;;
48014;SDS011;33780;51.034;7.120;2023-06-22T14:21:59;3.92;;;2.20;;
48014;SDS011;33780;51.034;7.120;2023-06-22T14:24:24;3.40;;;2.13;;
48014;SDS011;33780;51.034;7.120;2023-06-22T14:26:49;3.25;;;2.17;;
48014;SDS011;33780;51.034;7.120;2023-06-22T14:29:14;4.72;;;2.65;;
48014;SDS011;33780;51.034;7.120;2023-06-22T14:31:40;4.22;;;2.20;;
48014;SDS011;33780;51.034;7.120;2023-06-22T14:34:05;4.43;;;2.40;;
48014;SDS011;33780;51.034;7.120;2023-06-22T14:36:31;3.88;;;2.20;;
48014;SDS011;33780;51.034;7.120;2023-06-22T14:38:56;4.72;;;2.47;;
48014;SDS011;33780;51.034;7.120;2023-06-22T14:41:22;5.18;;;2.40;;
48014;SDS011;33780;51.034;7.120;2023-06-22T14:43:47;4.28;;;1.90;;
48014;SDS011;33780;51.034;7.120;2023-06-22T14:46:14;3.60;;;2.15;;
48014;SDS011;33780;51.034;7.120;2023-06-22T14:48:40;4.95;;;2.35;;
48014;SDS011;33780;51.034;7.120;2023-06-22T14:51:06;3.50;;;2.00;;
48014;SDS011;33780;51.034;7.120;2023-06-22T14:53:31;4.72;;;2.50;;
48014;SDS011;33780;51.034;7.120;2023-06-22T14:55:56;4.28;;;2.25;;
48014;SDS011;33780;51.034;7.120;2023-06-22T14:58:21;7.25;;;2.90;;
48014;SDS011;33780;51.034;7.120;2023-06-22T15:00:47;4.03;;;2.35;;
48014;SDS011;33780;51.034;7.120;2023-06-22T15:03:12;5.40;;;2.63;;
48014;SDS011;33780;51.034;7.120;2023-06-22T15:05:42;4.80;;;2.65;;
48014;SDS011;33780;51.034;7.120;2023-06-22T15:08:08;7.90;;;2.65;;
48014;SDS011;33780;51.034;7.120;2023-06-22T15:10:33;9.77;;;3.20;;
48014;SDS011;33780;51.034;7.120;2023-06-22T15:12:59;7.70;;;3.03;;
48014;SDS011;33780;51.034;7.120;2023-06-22T15:15:24;8.00;;;2.92;;
48014;SDS011;33780;51.034;7.120;2023-06-22T15:17:52;5.15;;;2.97;;
48014;SDS011;33780;51.034;7.120;2023-06-22T15:20:20;5.40;;;2.65;;